sensor_id;sensor_type;location;lat;lon;timestamp;P1;durP1;ratioP1;P2;durP2;ratioP2
40781;SDS011;26493;51.938;7.626;2022-08-19T00:00:04;19.48;;;15.95;;
40781;SDS011;26493;51.938;7.626;2022-08-19T00:04:57;22.13;;;17.55;;
40781;SDS011;26493;51.938;7.626;2022-08-19T00:07:23;23.10;;;18.60;;
40781;SDS011;26493;51.938;7.626;2022-08-19T00:09:49;23.13;;;18.88;;
40781;SDS011;26493;51.938;7.626;2022-08-19T00:12:15;22.08;;;18.08;;
40781;SDS011;26493;51.938;7.626;2022-08-19T00:14:41;20.70;;;18.08;;
40781;SDS011;26493;51.938;7.626;2022-08-19T00:17:08;20.30;;;17.70;;
40781;SDS011;26493;51.938;7.626;2022-08-19T00:19:34;20.95;;;17.02;;
40781;SDS011;26493;51.938;7.626;2022-08-19T00:22:00;20.75;;;18.30;;
40781;SDS011;26493;51.938;7.626;2022-08-19T00:24:27;26.45;;;18.35;;
40781;SDS011;26493;51.938;7.626;2022-08-19T00:26:53;20.73;;;18.25;;
40781;SDS011;26493;51.938;7.626;2022-08-19T00:29:21;23.25;;;18.40;;
40781;SDS011;26493;51.938;7.626;2022-08-19T00:31:48;22.38;;;18.52;;
40781;SDS011;26493;51.938;7.626;2022-08-19T00:34:15;21.65;;;18.63;;
40781;SDS011;26493;51.938;7.626;2022-08-19T00:36:41;23.50;;;18.85;;
40781;SDS011;26493;51.938;7.626;2022-08-19T00:39:08;22.73;;;18.27;;
40781;SDS011;26493;51.938;7.626;2022-08-19T00:41:34;21.08;;;18.50;;
40781;SDS011;26493;51.938;7.626;2022-08-19T00:44:03;24.75;;;19.38;;
40781;SDS011;26493;51.938;7.626;2022-08-19T00:46:30;24.95;;;19.23;;
40781;SDS011;26493;51.938;7.626;2022-08-19T00:48:57;22.60;;;19.30;;
40781;SDS011;26493;51.938;7.626;2022-08-19T00:51:24;23.65;;;19.30;;
40781;SDS011;26493;51.938;7.626;2022-08-19T00:53:51;23.75;;;19.33;;
40781;SDS011;26493;51.938;7.626;2022-08-19T00:56:18;23.23;;;19.10;;
40781;SDS011;26493;51.938;7.626;2022-08-19T00:58:44;23.00;;;19.70;;
40781;SDS011;26493;51.938;7.626;2022-08-19T01:01:10;22.83;;;19.85;;
40781;SDS011;26493;51.938;7.626;2022-08-19T01:03:36;24.10;;;20.45;;
40781;SDS011;26493;51.938;7.626;2022-08-19T01:06:02;23.42;;;19.65;;
40781;SDS011;26493;51.938;7.626;2022-08-19T01:08:28;22.60;;;19.70;;
40781;SDS011;26493;51.938;7.626;2022-08-19T01:10:55;23.92;;;20.83;;
40781;SDS011;26493;51.938;7.626;2022-08-19T01:13:25;23.53;;;21.03;;
40781;SDS011;26493;51.938;7.626;2022-08-19T01:15:56;24.70;;;20.75;;
40781;SDS011;26493;51.938;7.626;2022-08-19T01:18:23;23.67;;;20.35;;
40781;SDS011;26493;51.938;7.626;2022-08-19T01:20:51;25.65;;;21.65;;
40781;SDS011;26493;51.938;7.626;2022-08-19T01:23:17;24.88;;;20.75;;
40781;SDS011;26493;51.938;7.626;2022-08-19T01:25:50;23.80;;;21.20;;
40781;SDS011;26493;51.938;7.626;2022-08-19T01:28:18;25.88;;;21.58;;
40781;SDS011;26493;51.938;7.626;2022-08-19T01:30:44;26.45;;;22.35;;
40781;SDS011;26493;51.938;7.626;2022-08-19T01:33:11;24.65;;;21.80;;
40781;SDS011;26493;51.938;7.626;2022-08-19T01:35:37;29.33;;;22.38;;
40781;SDS011;26493;51.938;7.626;2022-08-19T01:38:04;23.50;;;21.00;;
40781;SDS011;26493;51.938;7.626;2022-08-19T01:40:32;26.08;;;22.25;;
40781;SDS011;26493;51.938;7.626;2022-08-19T01:42:59;24.13;;;20.42;;
40781;SDS011;26493;51.938;7.626;2022-08-19T01:45:27;24.45;;;21.33;;
40781;SDS011;26493;51.938;7.626;2022-08-19T01:47:53;24.52;;;21.88;;
40781;SDS011;26493;51.938;7.626;2022-08-19T01:50:19;27.45;;;22.27;;
40781;SDS011;26493;51.938;7.626;2022-08-19T01:52:45;25.48;;;21.42;;
40781;SDS011;26493;51.938;7.626;2022-08-19T01:55:13;27.20;;;22.05;;
40781;SDS011;26493;51.938;7.626;2022-08-19T01:57:41;24.92;;;21.85;;
40781;SDS011;26493;51.938;7.626;2022-08-19T02:00:09;26.42;;;22.23;;
40781;SDS011;26493;51.938;7.626;2022-08-19T02:02:36;26.20;;;22.70;;
40781;SDS011;26493;51.938;7.626;2022-08-19T02:05:02;23.70;;;21.23;;
40781;SDS011;26493;51.938;7.626;2022-08-19T02:07:28;26.65;;;23.20;;
40781;SDS011;26493;51.938;7.626;2022-08-19T02:09:54;26.63;;;23.02;;
40781;SDS011;26493;51.938;7.626;2022-08-19T02:12:20;25.15;;;22.48;;
40781;SDS011;26493;51.938;7.626;2022-08-19T02:14:46;26.35;;;22.17;;
40781;SDS011;26493;51.938;7.626;2022-08-19T02:17:13;29.83;;;23.55;;
40781;SDS011;26493;51.938;7.626;2022-08-19T02:19:39;27.77;;;22.85;;
40781;SDS011;26493;51.938;7.626;2022-08-19T02:22:05;26.58;;;23.40;;
40781;SDS011;26493;51.938;7.626;2022-08-19T02:24:31;27.02;;;22.98;;
40781;SDS011;26493;51.938;7.626;2022-08-19T02:26:57;25.30;;;22.58;;
40781;SDS011;26493;51.938;7.626;2022-08-19T02:29:23;27.23;;;22.70;;
40781;SDS011;26493;51.938;7.626;2022-08-19T02:31:49;30.27;;;24.02;;
40781;SDS011;26493;51.938;7.626;2022-08-19T02:34:16;26.60;;;22.60;;
40781;SDS011;26493;51.938;7.626;2022-08-19T02:36:42;25.88;;;22.60;;
40781;SDS011;26493;51.938;7.626;2022-08-19T02:39:08;27.38;;;22.58;;
40781;SDS011;26493;51.938;7.626;2022-08-19T02:41:34;25.50;;;22.77;;
40781;SDS011;26493;51.938;7.626;2022-08-19T02:44:01;25.58;;;22.55;;
40781;SDS011;26493;51.938;7.626;2022-08-19T02:46:30;26.38;;;23.33;;
40781;SDS011;26493;51.938;7.626;2022-08-19T02:48:57;24.75;;;22.13;;
40781;SDS011;26493;51.938;7.626;2022-08-19T02:51:25;25.63;;;22.10;;
40781;SDS011;26493;51.938;7.626;2022-08-19T02:53:51;23.63;;;21.13;;
40781;SDS011;26493;51.938;7.626;2022-08-19T02:56:18;24.35;;;21.00;;
40781;SDS011;26493;51.938;7.626;2022-08-19T02:58:44;27.48;;;21.75;;
40781;SDS011;26493;51.938;7.626;2022-08-19T03:01:10;24.85;;;22.13;;
40781;SDS011;26493;51.938;7.626;2022-08-19T03:03:37;23.85;;;20.73;;
40781;SDS011;26493;51.938;7.626;2022-08-19T03:06:10;25.27;;;22.50;;
40781;SDS011;26493;51.938;7.626;2022-08-19T03:08:37;25.80;;;21.80;;
40781;SDS011;26493;51.938;7.626;2022-08-19T03:11:04;25.92;;;22.13;;
40781;SDS011;26493;51.938;7.626;2022-08-19T03:13:30;25.05;;;22.40;;
40781;SDS011;26493;51.938;7.626;2022-08-19T03:15:56;26.15;;;22.50;;
40781;SDS011;26493;51.938;7.626;2022-08-19T03:18:22;27.77;;;22.88;;
40781;SDS011;26493;51.938;7.626;2022-08-19T03:20:49;25.50;;;22.73;;
40781;SDS011;26493;51.938;7.626;2022-08-19T03:25:44;25.90;;;23.10;;
40781;SDS011;26493;51.938;7.626;2022-08-19T03:28:11;27.20;;;23.35;;
40781;SDS011;26493;51.938;7.626;2022-08-19T03:30:38;30.92;;;24.45;;
40781;SDS011;26493;51.938;7.626;2022-08-19T03:33:07;28.20;;;25.23;;
40781;SDS011;26493;51.938;7.626;2022-08-19T03:35:33;27.23;;;24.35;;
40781;SDS011;26493;51.938;7.626;2022-08-19T03:38:02;28.30;;;25.33;;
40781;SDS011;26493;51.938;7.626;2022-08-19T03:40:28;28.38;;;25.40;;
40781;SDS011;26493;51.938;7.626;2022-08-19T03:42:55;30.23;;;27.00;;
40781;SDS011;26493;51.938;7.626;2022-08-19T03:45:21;34.17;;;25.52;;
40781;SDS011;26493;51.938;7.626;2022-08-19T03:47:47;29.58;;;26.48;;
40781;SDS011;26493;51.938;7.626;2022-08-19T03:50:13;29.35;;;25.73;;
40781;SDS011;26493;51.938;7.626;2022-08-19T03:52:39;29.95;;;26.75;;
40781;SDS011;26493;51.938;7.626;2022-08-19T03:55:06;30.17;;;26.90;;
40781;SDS011;26493;51.938;7.626;2022-08-19T03:57:32;31.20;;;26.98;;
40781;SDS011;26493;51.938;7.626;2022-08-19T03:59:59;28.75;;;25.85;;
40781;SDS011;26493;51.938;7.626;2022-08-19T04:02:25;30.38;;;27.00;;
40781;SDS011;26493;51.938;7.626;2022-08-19T04:04:52;32.35;;;26.60;;
40781;SDS011;26493;51.938;7.626;2022-08-19T04:07:19;31.75;;;28.38;;
40781;SDS011;26493;51.938;7.626;2022-08-19T04:09:46;29.58;;;26.58;;
40781;SDS011;26493;51.938;7.626;2022-08-19T04:12:12;29.88;;;26.67;;
40781;SDS011;26493;51.938;7.626;2022-08-19T04:14:38;32.67;;;29.23;;
40781;SDS011;26493;51.938;7.626;2022-08-19T04:17:04;31.75;;;28.30;;
40781;SDS011;26493;51.938;7.626;2022-08-19T04:19:32;32.78;;;29.25;;
40781;SDS011;26493;51.938;7.626;2022-08-19T04:21:58;32.25;;;28.27;;
40781;SDS011;26493;51.938;7.626;2022-08-19T04:24:24;30.50;;;27.30;;
40781;SDS011;26493;51.938;7.626;2022-08-19T04:26:50;31.95;;;28.70;;
40781;SDS011;26493;51.938;7.626;2022-08-19T04:29:17;31.90;;;28.48;;
40781;SDS011;26493;51.938;7.626;2022-08-19T04:31:44;32.13;;;28.70;;
40781;SDS011;26493;51.938;7.626;2022-08-19T04:34:12;33.60;;;30.02;;
40781;SDS011;26493;51.938;7.626;2022-08-19T04:36:39;32.77;;;29.27;;
40781;SDS011;26493;51.938;7.626;2022-08-19T04:39:10;33.67;;;29.70;;
40781;SDS011;26493;51.938;7.626;2022-08-19T04:41:36;32.67;;;29.15;;
40781;SDS011;26493;51.938;7.626;2022-08-19T04:44:21;30.42;;;27.13;;
40781;SDS011;26493;51.938;7.626;2022-08-19T04:46:48;31.73;;;28.33;;
40781;SDS011;26493;51.938;7.626;2022-08-19T04:49:15;31.35;;;27.95;;
40781;SDS011;26493;51.938;7.626;2022-08-19T04:51:42;31.25;;;27.92;;
40781;SDS011;26493;51.938;7.626;2022-08-19T04:54:09;32.95;;;29.30;;
40781;SDS011;26493;51.938;7.626;2022-08-19T04:56:35;32.78;;;28.90;;
40781;SDS011;26493;51.938;7.626;2022-08-19T04:59:01;32.97;;;29.30;;
40781;SDS011;26493;51.938;7.626;2022-08-19T05:01:31;31.58;;;28.02;;
40781;SDS011;26493;51.938;7.626;2022-08-19T05:03:58;35.17;;;29.77;;
40781;SDS011;26493;51.938;7.626;2022-08-19T05:06:25;31.98;;;27.65;;
40781;SDS011;26493;51.938;7.626;2022-08-19T05:08:51;32.45;;;29.13;;
40781;SDS011;26493;51.938;7.626;2022-08-19T05:13:45;31.98;;;28.50;;
40781;SDS011;26493;51.938;7.626;2022-08-19T05:16:12;31.10;;;27.02;;
40781;SDS011;26493;51.938;7.626;2022-08-19T05:18:39;33.03;;;29.02;;
40781;SDS011;26493;51.938;7.626;2022-08-19T05:21:25;30.83;;;27.05;;
40781;SDS011;26493;51.938;7.626;2022-08-19T05:24:10;31.00;;;27.67;;
40781;SDS011;26493;51.938;7.626;2022-08-19T05:26:37;34.17;;;29.95;;
40781;SDS011;26493;51.938;7.626;2022-08-19T05:29:03;31.80;;;28.45;;
40781;SDS011;26493;51.938;7.626;2022-08-19T05:31:30;33.17;;;29.60;;
40781;SDS011;26493;51.938;7.626;2022-08-19T05:33:56;34.75;;;30.20;;
40781;SDS011;26493;51.938;7.626;2022-08-19T05:36:24;34.40;;;28.27;;
40781;SDS011;26493;51.938;7.626;2022-08-19T05:38:50;32.47;;;28.15;;
40781;SDS011;26493;51.938;7.626;2022-08-19T05:41:17;32.75;;;28.85;;
40781;SDS011;26493;51.938;7.626;2022-08-19T05:43:43;33.97;;;28.45;;
40781;SDS011;26493;51.938;7.626;2022-08-19T05:46:13;31.35;;;26.45;;
40781;SDS011;26493;51.938;7.626;2022-08-19T05:48:41;33.92;;;30.33;;
40781;SDS011;26493;51.938;7.626;2022-08-19T05:51:07;33.28;;;27.55;;
40781;SDS011;26493;51.938;7.626;2022-08-19T05:53:34;32.22;;;26.95;;
40781;SDS011;26493;51.938;7.626;2022-08-19T05:56:06;31.58;;;27.67;;
40781;SDS011;26493;51.938;7.626;2022-08-19T05:58:33;30.63;;;26.52;;
40781;SDS011;26493;51.938;7.626;2022-08-19T06:00:59;30.90;;;27.60;;
40781;SDS011;26493;51.938;7.626;2022-08-19T06:03:30;29.65;;;26.55;;
40781;SDS011;26493;51.938;7.626;2022-08-19T06:05:57;31.38;;;26.45;;
40781;SDS011;26493;51.938;7.626;2022-08-19T06:08:24;30.55;;;25.88;;
40781;SDS011;26493;51.938;7.626;2022-08-19T06:10:50;30.23;;;26.10;;
40781;SDS011;26493;51.938;7.626;2022-08-19T06:13:16;30.25;;;25.67;;
40781;SDS011;26493;51.938;7.626;2022-08-19T06:15:44;35.03;;;25.15;;
40781;SDS011;26493;51.938;7.626;2022-08-19T06:18:11;30.33;;;25.95;;
40781;SDS011;26493;51.938;7.626;2022-08-19T06:20:37;31.63;;;25.58;;
40781;SDS011;26493;51.938;7.626;2022-08-19T06:23:03;30.88;;;26.98;;
40781;SDS011;26493;51.938;7.626;2022-08-19T06:25:29;28.98;;;25.67;;
40781;SDS011;26493;51.938;7.626;2022-08-19T06:27:55;30.92;;;25.40;;
40781;SDS011;26493;51.938;7.626;2022-08-19T06:30:21;32.10;;;26.05;;
40781;SDS011;26493;51.938;7.626;2022-08-19T06:32:47;31.10;;;25.10;;
40781;SDS011;26493;51.938;7.626;2022-08-19T06:35:13;31.00;;;25.90;;
40781;SDS011;26493;51.938;7.626;2022-08-19T06:37:39;32.25;;;26.45;;
40781;SDS011;26493;51.938;7.626;2022-08-19T06:40:06;31.20;;;25.95;;
40781;SDS011;26493;51.938;7.626;2022-08-19T06:42:33;29.87;;;25.83;;
40781;SDS011;26493;51.938;7.626;2022-08-19T06:45:00;30.30;;;27.10;;
40781;SDS011;26493;51.938;7.626;2022-08-19T06:47:29;30.75;;;25.05;;
40781;SDS011;26493;51.938;7.626;2022-08-19T06:49:57;36.05;;;27.10;;
40781;SDS011;26493;51.938;7.626;2022-08-19T06:52:28;30.55;;;26.00;;
40781;SDS011;26493;51.938;7.626;2022-08-19T06:54:54;31.05;;;25.27;;
40781;SDS011;26493;51.938;7.626;2022-08-19T06:57:21;30.95;;;26.52;;
40781;SDS011;26493;51.938;7.626;2022-08-19T06:59:47;32.92;;;27.30;;
40781;SDS011;26493;51.938;7.626;2022-08-19T07:02:13;31.77;;;26.02;;
40781;SDS011;26493;51.938;7.626;2022-08-19T07:04:39;32.05;;;26.50;;
40781;SDS011;26493;51.938;7.626;2022-08-19T07:07:08;30.65;;;27.48;;
40781;SDS011;26493;51.938;7.626;2022-08-19T07:09:35;32.13;;;27.25;;
40781;SDS011;26493;51.938;7.626;2022-08-19T07:12:02;31.67;;;28.27;;
40781;SDS011;26493;51.938;7.626;2022-08-19T07:14:29;35.83;;;27.15;;
40781;SDS011;26493;51.938;7.626;2022-08-19T07:16:55;31.70;;;28.23;;
40781;SDS011;26493;51.938;7.626;2022-08-19T07:19:22;30.90;;;27.23;;
40781;SDS011;26493;51.938;7.626;2022-08-19T07:21:50;31.33;;;27.63;;
40781;SDS011;26493;51.938;7.626;2022-08-19T07:24:20;38.00;;;27.92;;
40781;SDS011;26493;51.938;7.626;2022-08-19T07:26:49;30.90;;;25.98;;
40781;SDS011;26493;51.938;7.626;2022-08-19T07:29:15;31.02;;;27.80;;
40781;SDS011;26493;51.938;7.626;2022-08-19T07:31:41;32.15;;;26.98;;
40781;SDS011;26493;51.938;7.626;2022-08-19T07:34:08;33.58;;;27.90;;
40781;SDS011;26493;51.938;7.626;2022-08-19T07:36:37;32.10;;;25.40;;
40781;SDS011;26493;51.938;7.626;2022-08-19T07:39:06;30.08;;;26.70;;
40781;SDS011;26493;51.938;7.626;2022-08-19T07:41:32;29.98;;;25.55;;
40781;SDS011;26493;51.938;7.626;2022-08-19T07:44:02;30.17;;;25.58;;
40781;SDS011;26493;51.938;7.626;2022-08-19T07:46:31;31.25;;;27.00;;
40781;SDS011;26493;51.938;7.626;2022-08-19T07:48:58;31.30;;;26.15;;
40781;SDS011;26493;51.938;7.626;2022-08-19T07:51:25;31.42;;;24.92;;
40781;SDS011;26493;51.938;7.626;2022-08-19T07:53:51;30.10;;;26.05;;
40781;SDS011;26493;51.938;7.626;2022-08-19T07:56:18;29.77;;;26.33;;
40781;SDS011;26493;51.938;7.626;2022-08-19T07:58:45;28.63;;;25.55;;
40781;SDS011;26493;51.938;7.626;2022-08-19T08:01:13;29.60;;;24.58;;
40781;SDS011;26493;51.938;7.626;2022-08-19T08:03:40;26.52;;;23.27;;
40781;SDS011;26493;51.938;7.626;2022-08-19T08:06:25;29.52;;;24.95;;
40781;SDS011;26493;51.938;7.626;2022-08-19T08:09:10;28.60;;;24.38;;
40781;SDS011;26493;51.938;7.626;2022-08-19T08:11:39;26.17;;;22.48;;
40781;SDS011;26493;51.938;7.626;2022-08-19T08:14:07;27.48;;;24.25;;
40781;SDS011;26493;51.938;7.626;2022-08-19T08:16:36;29.23;;;23.55;;
40781;SDS011;26493;51.938;7.626;2022-08-19T08:19:05;33.80;;;22.90;;
40781;SDS011;26493;51.938;7.626;2022-08-19T08:21:32;26.63;;;23.45;;
40781;SDS011;26493;51.938;7.626;2022-08-19T08:23:58;28.30;;;24.17;;
40781;SDS011;26493;51.938;7.626;2022-08-19T08:26:25;25.45;;;22.58;;
40781;SDS011;26493;51.938;7.626;2022-08-19T08:28:51;25.15;;;22.52;;
40781;SDS011;26493;51.938;7.626;2022-08-19T08:31:17;26.83;;;22.13;;
40781;SDS011;26493;51.938;7.626;2022-08-19T08:33:44;24.60;;;21.67;;
40781;SDS011;26493;51.938;7.626;2022-08-19T08:36:11;24.88;;;20.55;;
40781;SDS011;26493;51.938;7.626;2022-08-19T08:38:41;26.00;;;20.65;;
40781;SDS011;26493;51.938;7.626;2022-08-19T08:43:44;25.13;;;21.70;;
40781;SDS011;26493;51.938;7.626;2022-08-19T08:46:29;27.10;;;23.23;;
40781;SDS011;26493;51.938;7.626;2022-08-19T08:51:34;27.25;;;22.55;;
40781;SDS011;26493;51.938;7.626;2022-08-19T08:54:02;23.40;;;20.88;;
40781;SDS011;26493;51.938;7.626;2022-08-19T08:56:28;24.88;;;22.02;;
40781;SDS011;26493;51.938;7.626;2022-08-19T08:58:58;25.98;;;22.27;;
40781;SDS011;26493;51.938;7.626;2022-08-19T09:01:26;23.35;;;20.00;;
40781;SDS011;26493;51.938;7.626;2022-08-19T09:03:52;24.65;;;21.98;;
40781;SDS011;26493;51.938;7.626;2022-08-19T09:09:32;26.33;;;22.20;;
40781;SDS011;26493;51.938;7.626;2022-08-19T09:16:44;22.98;;;20.58;;
40781;SDS011;26493;51.938;7.626;2022-08-19T09:19:10;23.42;;;20.80;;
40781;SDS011;26493;51.938;7.626;2022-08-19T09:21:36;21.55;;;19.20;;
40781;SDS011;26493;51.938;7.626;2022-08-19T09:24:03;20.23;;;17.35;;
40781;SDS011;26493;51.938;7.626;2022-08-19T09:26:30;20.98;;;17.90;;
40781;SDS011;26493;51.938;7.626;2022-08-19T09:28:57;22.20;;;18.80;;
40781;SDS011;26493;51.938;7.626;2022-08-19T09:31:25;20.88;;;18.67;;
40781;SDS011;26493;51.938;7.626;2022-08-19T09:33:52;21.60;;;18.30;;
40781;SDS011;26493;51.938;7.626;2022-08-19T09:36:21;20.38;;;16.90;;
40781;SDS011;26493;51.938;7.626;2022-08-19T09:38:48;20.13;;;16.60;;
40781;SDS011;26493;51.938;7.626;2022-08-19T09:41:17;19.45;;;15.63;;
40781;SDS011;26493;51.938;7.626;2022-08-19T09:43:44;19.58;;;16.30;;
40781;SDS011;26493;51.938;7.626;2022-08-19T09:46:10;20.42;;;16.25;;
40781;SDS011;26493;51.938;7.626;2022-08-19T09:48:37;18.85;;;16.10;;
40781;SDS011;26493;51.938;7.626;2022-08-19T09:51:13;21.75;;;16.15;;
40781;SDS011;26493;51.938;7.626;2022-08-19T09:53:43;21.15;;;17.05;;
40781;SDS011;26493;51.938;7.626;2022-08-19T09:56:10;18.33;;;15.82;;
40781;SDS011;26493;51.938;7.626;2022-08-19T09:58:37;17.80;;;15.60;;
40781;SDS011;26493;51.938;7.626;2022-08-19T10:01:03;18.67;;;15.60;;
40781;SDS011;26493;51.938;7.626;2022-08-19T10:03:30;19.23;;;16.30;;
40781;SDS011;26493;51.938;7.626;2022-08-19T10:05:57;19.17;;;17.15;;
40781;SDS011;26493;51.938;7.626;2022-08-19T10:08:31;18.48;;;16.17;;
40781;SDS011;26493;51.938;7.626;2022-08-19T10:10:58;19.00;;;17.00;;
40781;SDS011;26493;51.938;7.626;2022-08-19T10:13:25;20.77;;;17.65;;
40781;SDS011;26493;51.938;7.626;2022-08-19T10:15:52;18.75;;;16.75;;
40781;SDS011;26493;51.938;7.626;2022-08-19T10:18:20;22.30;;;17.58;;
40781;SDS011;26493;51.938;7.626;2022-08-19T10:20:46;19.80;;;17.17;;
40781;SDS011;26493;51.938;7.626;2022-08-19T10:23:13;19.45;;;17.38;;
40781;SDS011;26493;51.938;7.626;2022-08-19T10:25:40;19.42;;;17.35;;
40781;SDS011;26493;51.938;7.626;2022-08-19T10:28:06;20.33;;;16.77;;
40781;SDS011;26493;51.938;7.626;2022-08-19T10:30:32;20.50;;;16.52;;
40781;SDS011;26493;51.938;7.626;2022-08-19T10:32:58;19.23;;;15.85;;
40781;SDS011;26493;51.938;7.626;2022-08-19T10:35:24;18.95;;;16.17;;
40781;SDS011;26493;51.938;7.626;2022-08-19T10:37:54;19.08;;;16.90;;
40781;SDS011;26493;51.938;7.626;2022-08-19T10:40:24;19.00;;;17.00;;
40781;SDS011;26493;51.938;7.626;2022-08-19T10:42:50;18.75;;;16.75;;
40781;SDS011;26493;51.938;7.626;2022-08-19T10:45:16;17.92;;;15.80;;
40781;SDS011;26493;51.938;7.626;2022-08-19T10:47:42;18.95;;;16.42;;
40781;SDS011;26493;51.938;7.626;2022-08-19T10:50:08;18.52;;;16.33;;
40781;SDS011;26493;51.938;7.626;2022-08-19T10:52:53;18.95;;;15.70;;
40781;SDS011;26493;51.938;7.626;2022-08-19T10:55:21;17.33;;;15.43;;
40781;SDS011;26493;51.938;7.626;2022-08-19T10:58:10;18.52;;;15.90;;
40781;SDS011;26493;51.938;7.626;2022-08-19T11:00:36;18.35;;;15.63;;
40781;SDS011;26493;51.938;7.626;2022-08-19T11:03:02;17.40;;;15.50;;
40781;SDS011;26493;51.938;7.626;2022-08-19T11:05:28;17.52;;;15.65;;
40781;SDS011;26493;51.938;7.626;2022-08-19T11:07:55;18.75;;;16.00;;
40781;SDS011;26493;51.938;7.626;2022-08-19T11:10:21;19.30;;;15.95;;
40781;SDS011;26493;51.938;7.626;2022-08-19T11:12:48;18.48;;;16.00;;
40781;SDS011;26493;51.938;7.626;2022-08-19T11:15:20;18.02;;;15.80;;
40781;SDS011;26493;51.938;7.626;2022-08-19T11:17:46;20.88;;;17.25;;
40781;SDS011;26493;51.938;7.626;2022-08-19T11:20:13;18.67;;;16.67;;
40781;SDS011;26493;51.938;7.626;2022-08-19T11:22:39;20.33;;;16.75;;
40781;SDS011;26493;51.938;7.626;2022-08-19T11:25:06;19.45;;;16.92;;
40781;SDS011;26493;51.938;7.626;2022-08-19T11:27:32;19.45;;;17.23;;
40781;SDS011;26493;51.938;7.626;2022-08-19T11:29:58;18.80;;;16.75;;
40781;SDS011;26493;51.938;7.626;2022-08-19T11:32:25;19.13;;;17.23;;
40781;SDS011;26493;51.938;7.626;2022-08-19T11:34:52;19.10;;;17.10;;
40781;SDS011;26493;51.938;7.626;2022-08-19T11:37:19;19.40;;;16.88;;
40781;SDS011;26493;51.938;7.626;2022-08-19T11:39:45;19.98;;;16.90;;
40781;SDS011;26493;51.938;7.626;2022-08-19T11:42:11;19.90;;;16.83;;
40781;SDS011;26493;51.938;7.626;2022-08-19T11:44:56;19.23;;;17.10;;
40781;SDS011;26493;51.938;7.626;2022-08-19T11:47:22;20.40;;;17.23;;
40781;SDS011;26493;51.938;7.626;2022-08-19T11:49:48;19.55;;;17.05;;
40781;SDS011;26493;51.938;7.626;2022-08-19T11:52:15;19.95;;;17.15;;
40781;SDS011;26493;51.938;7.626;2022-08-19T11:54:41;19.67;;;17.63;;
40781;SDS011;26493;51.938;7.626;2022-08-19T11:57:07;22.83;;;17.85;;
40781;SDS011;26493;51.938;7.626;2022-08-19T11:59:33;18.85;;;14.90;;
40781;SDS011;26493;51.938;7.626;2022-08-19T12:01:59;17.95;;;15.57;;
40781;SDS011;26493;51.938;7.626;2022-08-19T12:04:25;17.30;;;14.18;;
40781;SDS011;26493;51.938;7.626;2022-08-19T12:06:51;17.27;;;14.70;;
40781;SDS011;26493;51.938;7.626;2022-08-19T12:09:17;19.40;;;17.00;;
40781;SDS011;26493;51.938;7.626;2022-08-19T12:11:43;20.08;;;16.88;;
40781;SDS011;26493;51.938;7.626;2022-08-19T12:14:11;20.58;;;16.58;;
40781;SDS011;26493;51.938;7.626;2022-08-19T12:19:06;20.63;;;17.38;;
40781;SDS011;26493;51.938;7.626;2022-08-19T12:21:33;21.95;;;18.38;;
40781;SDS011;26493;51.938;7.626;2022-08-19T12:24:00;21.73;;;17.67;;
40781;SDS011;26493;51.938;7.626;2022-08-19T12:26:27;21.98;;;18.67;;
40781;SDS011;26493;51.938;7.626;2022-08-19T12:28:54;19.55;;;16.73;;
40781;SDS011;26493;51.938;7.626;2022-08-19T12:31:20;20.85;;;17.13;;
40781;SDS011;26493;51.938;7.626;2022-08-19T12:33:46;20.95;;;18.27;;
40781;SDS011;26493;51.938;7.626;2022-08-19T12:36:13;20.50;;;17.60;;
40781;SDS011;26493;51.938;7.626;2022-08-19T12:38:40;18.60;;;15.88;;
40781;SDS011;26493;51.938;7.626;2022-08-19T12:41:08;21.30;;;17.50;;
40781;SDS011;26493;51.938;7.626;2022-08-19T12:43:36;19.13;;;16.83;;
40781;SDS011;26493;51.938;7.626;2022-08-19T12:46:02;18.48;;;16.38;;
40781;SDS011;26493;51.938;7.626;2022-08-19T12:48:29;19.27;;;15.85;;
40781;SDS011;26493;51.938;7.626;2022-08-19T12:50:55;17.80;;;15.68;;
40781;SDS011;26493;51.938;7.626;2022-08-19T12:53:21;20.33;;;15.90;;
40781;SDS011;26493;51.938;7.626;2022-08-19T12:55:47;20.05;;;16.20;;
40781;SDS011;26493;51.938;7.626;2022-08-19T12:58:13;20.58;;;16.63;;
40781;SDS011;26493;51.938;7.626;2022-08-19T13:00:39;19.30;;;15.43;;
40781;SDS011;26493;51.938;7.626;2022-08-19T13:03:05;18.88;;;15.38;;
40781;SDS011;26493;51.938;7.626;2022-08-19T13:05:32;18.95;;;15.98;;
40781;SDS011;26493;51.938;7.626;2022-08-19T13:07:59;18.65;;;15.93;;
40781;SDS011;26493;51.938;7.626;2022-08-19T13:10:28;19.40;;;16.20;;
40781;SDS011;26493;51.938;7.626;2022-08-19T13:12:54;19.80;;;15.60;;
40781;SDS011;26493;51.938;7.626;2022-08-19T13:15:21;17.02;;;14.98;;
40781;SDS011;26493;51.938;7.626;2022-08-19T13:17:48;18.10;;;14.88;;
40781;SDS011;26493;51.938;7.626;2022-08-19T13:20:15;17.63;;;14.43;;
40781;SDS011;26493;51.938;7.626;2022-08-19T13:22:42;17.33;;;14.93;;
40781;SDS011;26493;51.938;7.626;2022-08-19T13:25:09;17.35;;;14.52;;
40781;SDS011;26493;51.938;7.626;2022-08-19T13:27:35;17.60;;;14.85;;
40781;SDS011;26493;51.938;7.626;2022-08-19T13:30:02;19.65;;;17.00;;
40781;SDS011;26493;51.938;7.626;2022-08-19T13:32:47;19.67;;;17.58;;
40781;SDS011;26493;51.938;7.626;2022-08-19T13:35:32;20.50;;;18.40;;
40781;SDS011;26493;51.938;7.626;2022-08-19T13:37:58;22.35;;;18.65;;
40781;SDS011;26493;51.938;7.626;2022-08-19T13:40:25;20.92;;;18.73;;
40781;SDS011;26493;51.938;7.626;2022-08-19T13:42:53;20.83;;;18.63;;
40781;SDS011;26493;51.938;7.626;2022-08-19T13:45:20;20.15;;;17.50;;
40781;SDS011;26493;51.938;7.626;2022-08-19T13:47:47;20.55;;;18.45;;
40781;SDS011;26493;51.938;7.626;2022-08-19T13:50:15;20.58;;;18.58;;
40781;SDS011;26493;51.938;7.626;2022-08-19T13:55:08;19.90;;;17.90;;
40781;SDS011;26493;51.938;7.626;2022-08-19T13:57:34;19.88;;;17.52;;
40781;SDS011;26493;51.938;7.626;2022-08-19T14:00:01;19.48;;;17.45;;
40781;SDS011;26493;51.938;7.626;2022-08-19T14:02:27;20.05;;;17.95;;
40781;SDS011;26493;51.938;7.626;2022-08-19T14:04:53;20.35;;;18.25;;
40781;SDS011;26493;51.938;7.626;2022-08-19T14:07:19;20.40;;;18.30;;
40781;SDS011;26493;51.938;7.626;2022-08-19T14:09:49;20.58;;;17.77;;
40781;SDS011;26493;51.938;7.626;2022-08-19T14:12:18;19.00;;;17.02;;
40781;SDS011;26493;51.938;7.626;2022-08-19T14:14:45;20.42;;;17.95;;
40781;SDS011;26493;51.938;7.626;2022-08-19T14:17:11;19.20;;;17.20;;
40781;SDS011;26493;51.938;7.626;2022-08-19T14:19:38;20.35;;;17.17;;
40781;SDS011;26493;51.938;7.626;2022-08-19T14:22:04;18.70;;;15.60;;
40781;SDS011;26493;51.938;7.626;2022-08-19T14:24:30;19.30;;;17.13;;
40781;SDS011;26493;51.938;7.626;2022-08-19T14:26:59;20.23;;;17.60;;
40781;SDS011;26493;51.938;7.626;2022-08-19T14:29:26;19.52;;;17.27;;
40781;SDS011;26493;51.938;7.626;2022-08-19T14:31:53;19.35;;;16.90;;
40781;SDS011;26493;51.938;7.626;2022-08-19T14:34:21;18.60;;;16.60;;
40781;SDS011;26493;51.938;7.626;2022-08-19T14:36:47;19.52;;;16.95;;
40781;SDS011;26493;51.938;7.626;2022-08-19T14:39:13;19.10;;;16.63;;
40781;SDS011;26493;51.938;7.626;2022-08-19T14:41:40;19.35;;;17.35;;
40781;SDS011;26493;51.938;7.626;2022-08-19T14:44:07;19.53;;;17.43;;
40781;SDS011;26493;51.938;7.626;2022-08-19T14:46:35;18.85;;;16.83;;